createdAt,value
2023-06-11T00:01:31.236Z,98417.30
2023-06-11T00:03:58.865Z,98424.35
2023-06-11T00:06:26.050Z,98426.80
2023-06-11T00:08:56.297Z,98427.35
2023-06-11T00:11:24.199Z,98415.48
2023-06-11T00:13:51.831Z,98423.62
2023-06-11T00:16:18.852Z,98422.52
2023-06-11T00:18:46.581Z,98421.84
2023-06-11T00:21:15.653Z,98424.95
2023-06-11T00:23:42.675Z,98425.90
2023-06-11T00:26:09.641Z,98423.79
2023-06-11T00:28:36.870Z,98426.43
2023-06-11T00:31:07.012Z,98423.73
2023-06-11T00:33:34.210Z,98423.55
2023-06-11T00:36:01.427Z,98423.45
2023-06-11T00:38:29.866Z,98426.88
2023-06-11T00:40:56.989Z,98420.91
2023-06-11T00:43:25.222Z,98418.87
2023-06-11T00:45:52.468Z,98415.37
2023-06-11T00:48:21.042Z,98418.49
2023-06-11T00:50:53.119Z,98420.67
2023-06-11T00:53:23.235Z,98422.08
2023-06-11T00:55:50.576Z,98423.42
2023-06-11T00:58:19.117Z,98424.30
2023-06-11T01:00:56.223Z,98421.70
2023-06-11T01:03:28.888Z,98429.76
2023-06-11T01:06:04.035Z,98428.20
2023-06-11T01:08:40.445Z,98430.30
2023-06-11T01:11:15.452Z,98432.52
2023-06-11T01:13:42.509Z,98432.83
2023-06-11T01:16:16.143Z,98432.63
2023-06-11T01:19:04.849Z,98434.64
2023-06-11T01:21:42.870Z,98432.16
2023-06-11T01:24:19.098Z,98432.63
2023-06-11T01:27:06.172Z,98435.66
2023-06-11T01:29:38.417Z,98439.23
2023-06-11T01:32:06.747Z,98437.03
2023-06-11T01:34:33.663Z,98434.70
2023-06-11T01:37:01.412Z,98434.84
2023-06-11T01:39:28.433Z,98436.59
2023-06-11T01:41:56.321Z,98437.71
2023-06-11T01:44:23.983Z,98439.08
2023-06-11T01:46:51.323Z,98436.40
2023-06-11T01:49:18.858Z,98434.46
2023-06-11T01:51:45.991Z,98436.59
2023-06-11T01:54:13.084Z,98435.18
2023-06-11T01:56:40.041Z,98439.73
2023-06-11T01:59:07.719Z,98435.14
2023-06-11T02:01:39.692Z,98438.77
2023-06-11T02:04:06.783Z,98441.77
2023-06-11T02:06:34.814Z,98446.01
2023-06-11T02:09:01.705Z,98441.09
2023-06-11T02:11:28.561Z,98439.31
2023-06-11T02:13:55.468Z,98438.92
2023-06-11T02:16:22.326Z,98437.45
2023-06-11T02:18:49.829Z,98438.92
2023-06-11T02:21:16.898Z,98438.16
2023-06-11T02:23:43.776Z,98436.77
2023-06-11T02:26:10.745Z,98439.58
2023-06-11T02:28:37.711Z,98445.48
2023-06-11T02:31:04.525Z,98448.80
2023-06-11T02:33:31.367Z,98447.80
2023-06-11T02:35:58.186Z,98444.47
2023-06-11T02:38:24.959Z,98451.91
2023-06-11T02:40:51.807Z,98448.41
2023-06-11T02:43:18.886Z,98453.36
2023-06-11T02:45:45.861Z,98453.45
2023-06-11T02:48:12.675Z,98451.06
2023-06-11T02:50:39.529Z,98450.77
2023-06-11T02:53:06.489Z,98451.68
2023-06-11T02:55:33.468Z,98452.69
2023-06-11T02:58:00.438Z,98450.07
2023-06-11T03:00:27.651Z,98453.23
2023-06-11T03:02:54.513Z,98454.95
2023-06-11T03:05:21.500Z,98462.30
2023-06-11T03:07:48.423Z,98459.75
2023-06-11T03:10:15.465Z,98457.88
2023-06-11T03:12:42.268Z,98456.11
2023-06-11T03:15:09.723Z,98460.34
2023-06-11T03:17:36.908Z,98463.77
2023-06-11T03:20:04.025Z,98458.80
2023-06-11T03:22:30.923Z,98455.84
2023-06-11T03:24:57.750Z,98461.20
2023-06-11T03:27:25.414Z,98466.89
2023-06-11T03:29:52.492Z,98469.30
2023-06-11T03:32:19.566Z,98466.64
2023-06-11T03:34:46.442Z,98463.23
2023-06-11T03:37:13.257Z,98463.08
2023-06-11T03:39:40.178Z,98464.05
2023-06-11T03:42:07.457Z,98463.72
2023-06-11T03:44:34.443Z,98464.71
2023-06-11T03:47:01.479Z,98464.68
2023-06-11T03:49:28.759Z,98466.95
2023-06-11T04:03:03.970Z,98474.48
2023-06-11T04:05:36.717Z,98475.67
2023-06-11T04:08:04.823Z,98473.63
2023-06-11T04:10:32.339Z,98478.27
2023-06-11T04:12:59.298Z,98484.20
2023-06-11T04:15:27.032Z,98483.14
2023-06-11T04:17:53.940Z,98489.61
2023-06-11T04:20:21.040Z,98487.04
2023-06-11T04:22:47.845Z,98490.27
2023-06-11T04:25:15.157Z,98493.27
2023-06-11T04:27:41.992Z,98497.75
2023-06-11T04:30:10.595Z,98496.34
2023-06-11T04:32:38.457Z,98495.59
2023-06-11T04:35:06.171Z,98499.77
2023-06-11T04:37:39.832Z,98496.70
2023-06-11T04:40:12.035Z,98502.68
2023-06-11T04:42:42.302Z,98506.00
2023-06-11T04:45:12.739Z,98504.48
2023-06-11T04:47:42.049Z,98506.77
2023-06-11T04:50:09.850Z,98509.99
2023-06-11T04:52:40.064Z,98509.39
2023-06-11T04:55:10.791Z,98511.20
2023-06-11T04:57:38.555Z,98516.02
2023-06-11T05:00:12.711Z,98514.07
2023-06-11T05:02:40.155Z,98513.63
2023-06-11T05:05:07.645Z,98510.38
2023-06-11T05:07:34.908Z,98509.84
2023-06-11T05:10:02.208Z,98512.85
2023-06-11T05:12:29.089Z,98512.50
2023-06-11T05:14:56.182Z,98512.80
2023-06-11T05:17:23.904Z,98511.08
2023-06-11T05:19:52.548Z,98523.48
2023-06-11T05:22:20.798Z,98517.24
2023-06-11T05:24:49.073Z,98527.61
2023-06-11T05:27:16.649Z,98518.96
2023-06-11T05:29:46.003Z,98517.55
2023-06-11T05:32:16.262Z,98517.23
2023-06-11T05:34:44.478Z,98521.74
2023-06-11T05:37:11.847Z,98519.36
2023-06-11T05:39:38.736Z,98524.85
2023-06-11T05:42:06.511Z,98522.74
2023-06-11T05:44:33.330Z,98527.16
2023-06-11T05:47:00.242Z,98527.23
2023-06-11T05:49:27.262Z,98527.85
2023-06-11T05:51:54.054Z,98530.73
2023-06-11T05:54:20.929Z,98527.77
2023-06-11T05:56:47.809Z,98530.57
2023-06-11T05:59:14.624Z,98541.16
2023-06-11T06:01:46.460Z,98541.83
2023-06-11T06:04:16.289Z,98550.42
2023-06-11T06:06:44.167Z,98555.94
2023-06-11T06:09:11.300Z,98557.28
2023-06-11T06:11:38.358Z,98558.88
2023-06-11T06:14:05.372Z,98562.66
2023-06-11T06:16:33.083Z,98563.58
2023-06-11T06:19:00.224Z,98560.15
2023-06-11T06:21:27.093Z,98566.40
2023-06-11T06:23:54.176Z,98570.02
2023-06-11T06:26:21.851Z,98578.35
2023-06-11T06:28:48.767Z,98578.23
2023-06-11T06:31:18.727Z,98573.50
2023-06-11T06:33:45.962Z,98579.56
2023-06-11T06:36:13.105Z,98574.27
2023-06-11T06:38:41.750Z,98577.11
2023-06-11T06:41:08.951Z,98577.03
2023-06-11T06:43:36.709Z,98581.56
2023-06-11T06:46:03.534Z,98580.49
2023-06-11T06:48:30.527Z,98583.67
2023-06-11T06:50:57.692Z,98587.33
2023-06-11T06:53:24.536Z,98582.14
2023-06-11T06:55:53.290Z,98585.15
2023-06-11T06:58:20.568Z,98594.39
2023-06-11T07:00:47.397Z,98590.32
2023-06-11T07:03:16.962Z,98587.67
2023-06-11T07:05:44.722Z,98588.27
2023-06-11T07:08:13.521Z,98596.02
2023-06-11T07:10:50.358Z,98590.15
2023-06-11T07:13:17.294Z,98591.16
2023-06-11T07:15:44.320Z,98596.25
2023-06-11T07:18:11.299Z,98594.50
2023-06-11T07:20:38.823Z,98592.36
2023-06-11T07:23:05.805Z,98593.38
2023-06-11T07:25:33.277Z,98599.94
2023-06-11T07:28:03.563Z,98599.48
2023-06-11T07:30:30.501Z,98593.08
2023-06-11T07:32:57.584Z,98594.48
2023-06-11T07:35:26.384Z,98593.49
2023-06-11T07:37:53.785Z,98595.70
2023-06-11T07:40:21.681Z,98600.84
2023-06-11T07:42:49.237Z,98599.15
2023-06-11T07:45:18.558Z,98600.23
2023-06-11T07:47:46.846Z,98598.42
2023-06-11T07:50:13.899Z,98604.35
2023-06-11T07:52:41.304Z,98606.98
2023-06-11T07:55:08.583Z,98595.86
2023-06-11T07:57:35.455Z,98597.55
2023-06-11T08:00:02.566Z,98594.78
2023-06-11T08:02:30.171Z,98598.76
2023-06-11T08:04:57.014Z,98603.55
2023-06-11T08:07:23.787Z,98601.81
2023-06-11T08:09:51.593Z,98608.02
2023-06-11T08:12:18.310Z,98605.56
2023-06-11T08:14:45.130Z,98606.12
2023-06-11T08:17:11.940Z,98610.83
2023-06-11T08:19:38.707Z,98605.50
2023-06-11T08:22:06.267Z,98606.39
2023-06-11T08:24:33.196Z,98605.79
2023-06-11T08:27:00.089Z,98602.02
2023-06-11T08:29:27.584Z,98606.89
2023-06-11T08:31:54.422Z,98608.52
2023-06-11T08:34:21.265Z,98603.14
2023-06-11T08:36:48.582Z,98602.79
2023-06-11T08:39:15.303Z,98606.08
2023-06-11T08:41:42.111Z,98607.62
2023-06-11T08:44:09.005Z,98608.09
2023-06-11T08:46:38.047Z,98610.13
2023-06-11T08:49:08.748Z,98608.27
2023-06-11T08:51:41.116Z,98614.07
2023-06-11T08:54:09.635Z,98611.48
2023-06-11T08:56:37.028Z,98610.39
2023-06-11T08:59:04.181Z,98605.15
2023-06-11T09:01:32.764Z,98603.09
2023-06-11T09:04:01.523Z,98603.48
2023-06-11T09:06:29.539Z,98605.89
2023-06-11T09:09:01.235Z,98599.05
2023-06-11T09:11:38.554Z,98604.00
2023-06-11T09:14:08.477Z,98602.64
2023-06-11T09:16:47.438Z,98602.17
2023-06-11T09:19:21.756Z,98605.66
2023-06-11T09:21:56.621Z,98603.74
2023-06-11T09:24:25.377Z,98600.93
2023-06-11T09:27:01.379Z,98605.06
2023-06-11T09:29:29.876Z,98598.78
2023-06-11T09:32:23.787Z,98596.54
2023-06-11T09:34:57.474Z,98591.02
2023-06-11T09:37:24.924Z,98596.44
2023-06-11T09:39:51.713Z,98597.59
2023-06-11T09:42:28.370Z,98599.30
2023-06-11T09:45:02.460Z,98600.36
2023-06-11T09:47:32.209Z,98592.88
2023-06-11T09:50:00.842Z,98588.90
2023-06-11T09:52:29.454Z,98592.02
2023-06-11T09:54:56.988Z,98593.76
2023-06-11T09:57:23.826Z,98600.23
2023-06-11T09:59:52.111Z,98604.27
2023-06-11T10:02:19.007Z,98599.36
2023-06-11T10:04:46.883Z,98595.64
2023-06-11T10:07:14.934Z,98603.92
2023-06-11T10:09:44.056Z,98602.14
2023-06-11T10:12:13.356Z,98599.86
2023-06-11T10:14:41.689Z,98599.95
2023-06-11T10:17:09.611Z,98606.84
2023-06-11T10:19:37.895Z,98606.95
2023-06-11T10:22:05.550Z,98608.30
2023-06-11T10:24:32.512Z,98604.34
2023-06-11T10:27:06.687Z,98600.08
2023-06-11T10:29:38.985Z,98602.96
2023-06-11T10:32:16.630Z,98598.05
2023-06-11T10:34:44.719Z,98599.38
2023-06-11T10:37:13.327Z,98610.48
2023-06-11T10:39:55.834Z,98607.27
2023-06-11T10:42:36.206Z,98607.43
2023-06-11T10:45:08.714Z,98607.27
2023-06-11T10:47:42.011Z,98606.96
2023-06-11T10:50:12.214Z,98612.28
2023-06-11T10:52:57.490Z,98596.10
2023-06-11T10:55:27.563Z,98595.48
2023-06-11T10:57:55.642Z,98596.02
2023-06-11T11:00:23.943Z,98596.73
2023-06-11T11:02:52.634Z,98590.00
2023-06-11T11:05:20.827Z,98595.79
2023-06-11T11:07:48.581Z,98598.44
2023-06-11T11:10:20.973Z,98592.49
2023-06-11T11:12:49.446Z,98597.04
2023-06-11T11:15:17.283Z,98588.97
2023-06-11T11:17:45.694Z,98593.42
2023-06-11T11:20:21.249Z,98588.50
2023-06-11T11:22:53.938Z,98588.20
2023-06-11T11:25:23.106Z,98593.75
2023-06-11T11:27:50.061Z,98590.94
2023-06-11T11:30:18.937Z,98580.30
2023-06-11T11:32:46.529Z,98581.95
2023-06-11T11:35:16.243Z,98573.20
2023-06-11T11:37:47.092Z,98581.48
2023-06-11T11:40:14.623Z,98577.57
2023-06-11T11:42:52.408Z,98578.35
2023-06-11T11:45:31.392Z,98581.31
2023-06-11T11:48:01.192Z,98572.17
2023-06-11T11:50:35.296Z,98570.91
2023-06-11T11:53:05.321Z,98570.68
2023-06-11T11:55:56.039Z,98569.59
2023-06-11T11:58:28.191Z,98568.42
2023-06-11T12:01:00.366Z,98572.17
2023-06-11T12:03:28.457Z,98568.80
2023-06-11T12:06:04.422Z,98575.30
2023-06-11T12:08:33.053Z,98561.60
2023-06-11T12:11:02.277Z,98561.81
2023-06-11T12:13:29.170Z,98561.41
2023-06-11T12:15:56.547Z,98561.10
2023-06-11T12:18:23.510Z,98560.63
2023-06-11T12:20:50.412Z,98563.23
2023-06-11T12:23:17.251Z,98555.86
2023-06-11T12:25:44.204Z,98554.30
2023-06-11T12:28:11.082Z,98544.66
2023-06-11T12:30:37.957Z,98559.36
2023-06-11T12:33:04.987Z,98553.49
2023-06-11T12:35:32.177Z,98544.13
2023-06-11T12:37:59.197Z,98539.67
2023-06-11T12:40:26.540Z,98546.02
2023-06-11T12:42:58.288Z,98544.38
2023-06-11T12:45:27.964Z,98548.11
2023-06-11T12:47:55.145Z,98546.21
2023-06-11T12:50:27.330Z,98547.28
2023-06-11T12:52:54.890Z,98554.32
2023-06-11T12:55:22.316Z,98554.18
2023-06-11T12:57:50.148Z,98544.71
2023-06-11T13:00:17.548Z,98551.83
2023-06-11T13:02:45.524Z,98556.85
2023-06-11T13:05:12.707Z,98544.52
2023-06-11T13:07:39.689Z,98540.70
2023-06-11T13:10:06.953Z,98541.70
2023-06-11T13:12:34.032Z,98540.30
2023-06-11T13:15:01.128Z,98537.65
2023-06-11T13:17:28.780Z,98540.45
2023-06-11T13:19:56.303Z,98531.46
2023-06-11T13:22:23.524Z,98529.02
2023-06-11T13:24:51.108Z,98537.70
2023-06-11T13:27:18.389Z,98535.35
2023-06-11T13:29:45.335Z,98533.80
2023-06-11T13:32:12.454Z,98531.05
2023-06-11T13:34:39.542Z,98542.70
2023-06-11T13:37:06.855Z,98542.92
2023-06-11T13:39:36.522Z,98548.64
2023-06-11T13:42:03.784Z,98540.00
2023-06-11T13:44:30.721Z,98530.56
2023-06-11T13:46:57.809Z,98530.36
2023-06-11T13:49:27.356Z,98535.76
2023-06-11T13:51:56.028Z,98533.73
2023-06-11T13:54:24.199Z,98536.63
2023-06-11T13:56:51.644Z,98535.35
2023-06-11T13:59:20.852Z,98534.21
2023-06-11T14:01:47.697Z,98534.66
2023-06-11T14:04:14.626Z,98520.92
2023-06-11T14:06:41.523Z,98526.00
2023-06-11T14:09:09.454Z,98524.61
2023-06-11T14:11:36.432Z,98527.56
2023-06-11T14:14:03.368Z,98524.73
2023-06-11T14:16:30.475Z,98520.16
2023-06-11T14:18:57.421Z,98519.57
2023-06-11T14:21:26.062Z,98523.50
2023-06-11T14:23:53.078Z,98523.77
2023-06-11T14:26:20.015Z,98520.58
2023-06-11T14:28:46.893Z,98515.50
2023-06-11T14:31:13.824Z,98524.80
2023-06-11T14:33:40.733Z,98521.52
2023-06-11T14:36:08.747Z,98523.53
2023-06-11T14:38:35.843Z,98515.87
2023-06-11T14:41:03.196Z,98542.86
2023-06-11T14:43:30.158Z,98530.28
2023-06-11T14:45:57.108Z,98536.77
2023-06-11T14:48:24.014Z,98531.46
2023-06-11T14:50:50.973Z,98527.80
2023-06-11T14:53:17.866Z,98527.02
2023-06-11T14:55:44.986Z,98522.25
2023-06-11T14:58:12.365Z,98519.73
2023-06-11T15:00:39.206Z,98515.10
2023-06-11T15:03:10.506Z,98525.77
2023-06-11T15:05:40.996Z,98517.63
2023-06-11T15:08:08.058Z,98525.30
2023-06-11T15:10:35.817Z,98527.13
2023-06-11T15:13:04.154Z,98533.80
2023-06-11T15:15:30.978Z,98525.54
2023-06-11T15:17:58.423Z,98523.58
2023-06-11T15:20:25.486Z,98518.25
2023-06-11T15:22:52.366Z,98511.20
2023-06-11T15:25:19.413Z,98517.91
2023-06-11T15:27:46.324Z,98536.45
2023-06-11T15:30:13.502Z,98541.48
2023-06-11T15:32:40.721Z,98530.33
2023-06-11T15:35:08.736Z,98527.85
2023-06-11T15:37:36.440Z,98529.75
2023-06-11T15:40:04.000Z,98527.72
2023-06-11T15:42:30.941Z,98529.20
2023-06-11T15:44:57.935Z,98532.57
2023-06-11T15:47:24.900Z,98537.33
2023-06-11T15:49:52.649Z,98539.90
2023-06-11T15:52:19.626Z,98529.90
2023-06-11T15:54:47.091Z,98534.19
2023-06-11T15:57:14.085Z,98533.17
2023-06-11T15:59:43.634Z,98537.80
2023-06-11T16:02:10.734Z,98534.13
2023-06-11T16:04:38.005Z,98531.39
2023-06-11T16:07:08.234Z,98534.11
2023-06-11T16:09:36.641Z,98534.71
2023-06-11T16:12:03.979Z,98536.58
2023-06-11T16:14:30.824Z,98537.98
2023-06-11T16:16:58.671Z,98525.47
2023-06-11T16:19:26.313Z,98526.96
2023-06-11T16:21:53.218Z,98527.88
2023-06-11T16:24:20.332Z,98529.05
2023-06-11T16:26:47.399Z,98528.90
2023-06-11T16:29:15.212Z,98536.23
2023-06-11T16:31:43.874Z,98534.98
2023-06-11T16:34:12.630Z,98536.77
2023-06-11T16:36:40.079Z,98532.41
2023-06-11T16:39:24.965Z,98546.00
2023-06-11T16:41:53.432Z,98536.02
2023-06-11T16:44:20.424Z,98545.91
2023-06-11T16:46:48.022Z,98550.37
2023-06-11T16:49:15.067Z,98549.66
2023-06-11T16:51:42.077Z,98545.13
2023-06-11T16:54:09.233Z,98543.18
2023-06-11T16:56:36.450Z,98543.95
2023-06-11T16:59:03.394Z,98567.78
2023-06-11T17:01:30.553Z,98569.02
2023-06-11T17:03:57.844Z,98565.49
2023-06-11T17:06:28.158Z,98559.92
2023-06-11T17:08:56.412Z,98578.06
2023-06-11T17:11:23.391Z,98570.73
2023-06-11T17:13:51.433Z,98581.76
2023-06-11T17:16:18.357Z,98581.92
2023-06-11T17:18:45.289Z,98582.89
2023-06-11T17:21:12.769Z,98582.91
2023-06-11T17:23:39.726Z,98581.34
2023-06-11T17:26:06.671Z,98588.66
2023-06-11T17:28:33.662Z,98589.22
2023-06-11T17:31:00.973Z,98592.31
2023-06-11T17:33:27.891Z,98596.27
2023-06-11T17:35:55.030Z,98608.20
2023-06-11T17:38:22.064Z,98606.54
2023-06-11T17:40:49.448Z,98609.94
2023-06-11T17:43:16.386Z,98609.83
2023-06-11T17:45:43.278Z,98613.39
2023-06-11T17:48:10.221Z,98616.41
2023-06-11T17:50:38.390Z,98614.17
2023-06-11T17:53:06.282Z,98619.38
2023-06-11T17:55:33.183Z,98622.32
2023-06-11T17:58:00.208Z,98616.93
2023-06-11T18:00:27.155Z,98613.77
2023-06-11T18:02:56.344Z,98615.60
2023-06-11T18:05:23.419Z,98618.72
2023-06-11T18:07:50.425Z,98621.73
2023-06-11T18:10:18.618Z,98622.95
2023-06-11T18:12:46.078Z,98617.03
2023-06-11T18:15:31.520Z,98621.41
2023-06-11T18:18:00.495Z,98630.42
2023-06-11T18:20:28.779Z,98627.16
2023-06-11T18:22:56.434Z,98629.55
2023-06-11T18:25:24.145Z,98624.73
2023-06-11T18:27:51.128Z,98624.81
2023-06-11T18:30:21.098Z,98628.46
2023-06-11T18:32:49.022Z,98630.02
2023-06-11T18:35:16.071Z,98634.92
2023-06-11T18:37:43.007Z,98633.90
2023-06-11T18:40:10.762Z,98636.05
2023-06-11T18:42:38.219Z,98641.09
2023-06-11T18:45:05.714Z,98642.48
2023-06-11T18:47:32.608Z,98645.66
2023-06-11T18:49:59.665Z,98644.73
2023-06-11T18:52:26.582Z,98649.77
2023-06-11T18:54:53.706Z,98646.96
2023-06-11T18:57:21.069Z,98645.52
2023-06-11T18:59:47.977Z,98647.42
2023-06-11T19:02:14.830Z,98654.48
2023-06-11T19:04:42.450Z,98653.95
2023-06-11T19:07:09.816Z,98661.84
2023-06-11T19:09:36.656Z,98660.79
2023-06-11T19:12:03.743Z,98662.85
2023-06-11T19:14:30.683Z,98662.82
2023-06-11T19:16:57.589Z,98664.85
2023-06-11T19:19:24.542Z,98661.83
2023-06-11T19:21:51.423Z,98664.13
2023-06-11T19:24:18.444Z,98665.83
2023-06-11T19:26:45.293Z,98673.86
2023-06-11T19:29:12.662Z,98674.06
2023-06-11T19:31:39.801Z,98672.16
2023-06-11T19:34:06.659Z,98676.02
2023-06-11T19:36:33.658Z,98675.96
2023-06-11T19:39:00.669Z,98685.17
2023-06-11T19:41:30.446Z,98687.34
2023-06-11T19:44:00.924Z,98685.30
2023-06-11T19:46:30.780Z,98687.30
2023-06-11T19:48:58.663Z,98690.11
2023-06-11T19:51:25.821Z,98688.40
2023-06-11T19:53:53.157Z,98689.11
2023-06-11T19:56:21.198Z,98691.41
2023-06-11T19:58:48.974Z,98692.17
2023-06-11T20:01:17.823Z,98690.20
2023-06-11T20:03:45.768Z,98696.09
2023-06-11T20:06:13.483Z,98693.77
2023-06-11T20:08:41.569Z,98696.79
2023-06-11T20:11:12.509Z,98693.61
2023-06-11T20:13:44.609Z,98695.89
2023-06-11T20:16:12.647Z,98699.34
2023-06-11T20:18:43.346Z,98702.76
2023-06-11T20:21:10.255Z,98703.65
2023-06-11T20:23:37.362Z,98704.27
2023-06-11T20:26:05.202Z,98704.77
2023-06-11T20:28:32.737Z,98698.20
2023-06-11T20:31:04.504Z,98700.67
2023-06-11T20:33:33.215Z,98699.66
2023-06-11T20:36:03.235Z,98696.96
2023-06-11T20:38:30.065Z,98699.71
2023-06-11T20:40:58.657Z,98701.45
2023-06-11T20:43:25.756Z,98701.32
2023-06-11T20:48:23.372Z,98697.88
2023-06-11T20:50:50.456Z,98703.16
2023-06-11T20:53:32.613Z,98705.04
2023-06-11T20:56:01.422Z,98708.67
2023-06-11T20:58:28.913Z,98711.24
2023-06-11T21:00:55.812Z,98707.44
2023-06-11T21:03:22.829Z,98711.01
2023-06-11T21:05:55.548Z,98709.08
2023-06-11T21:08:22.496Z,98711.48
2023-06-11T21:10:49.774Z,98711.45
2023-06-11T21:13:16.681Z,98712.61
2023-06-11T21:15:43.833Z,98710.65
2023-06-11T21:18:11.052Z,98712.64
2023-06-11T21:20:39.644Z,98712.94
2023-06-11T21:23:07.276Z,98716.50
2023-06-11T21:25:34.236Z,98714.60
2023-06-11T21:28:01.409Z,98719.15
2023-06-11T21:30:28.310Z,98715.17
2023-06-11T21:32:55.239Z,98713.34
2023-06-11T21:35:22.219Z,98713.61
2023-06-11T21:37:49.134Z,98710.23
2023-06-11T21:40:16.098Z,98711.67
2023-06-11T21:42:43.123Z,98712.30
2023-06-11T21:45:10.436Z,98713.56
2023-06-11T21:47:37.299Z,98713.08
2023-06-11T21:50:06.951Z,98712.17
2023-06-11T21:52:39.257Z,98710.83
2023-06-11T21:55:08.089Z,98712.63
2023-06-11T21:57:36.094Z,98711.17
2023-06-11T22:00:13.712Z,98710.70
2023-06-11T22:02:42.470Z,98709.59
2023-06-11T22:05:13.492Z,98704.50
2023-06-11T22:07:41.677Z,98705.36
2023-06-11T22:10:10.253Z,98708.90
2023-06-11T22:12:43.172Z,98706.97
2023-06-11T22:15:11.971Z,98704.30
2023-06-11T22:17:40.849Z,98706.09
2023-06-11T22:20:10.849Z,98700.48
2023-06-11T22:22:43.753Z,98698.43
2023-06-11T22:25:12.208Z,98695.69
2023-06-11T22:27:43.548Z,98696.56
2023-06-11T22:30:12.325Z,98696.86
2023-06-11T22:32:39.654Z,98695.30
2023-06-11T22:35:07.299Z,98695.80
2023-06-11T22:37:36.934Z,98692.42
2023-06-11T22:40:06.188Z,98690.11
2023-06-11T22:42:33.979Z,98692.71
2023-06-11T22:45:01.212Z,98691.18
2023-06-11T22:47:29.429Z,98694.43
2023-06-11T22:49:57.589Z,98689.61
2023-06-11T22:52:24.551Z,98688.83
2023-06-11T22:54:51.518Z,98688.67
2023-06-11T22:57:18.387Z,98683.65
2023-06-11T22:59:45.183Z,98688.92
2023-06-11T23:02:12.392Z,98687.88
2023-06-11T23:04:40.649Z,98683.72
2023-06-11T23:07:07.785Z,98684.82
2023-06-11T23:09:34.716Z,98679.64
2023-06-11T23:12:01.671Z,98676.70
2023-06-11T23:14:28.498Z,98676.27
2023-06-11T23:16:58.854Z,98676.30
2023-06-11T23:19:27.166Z,98673.73
2023-06-11T23:21:58.273Z,98670.71
2023-06-11T23:24:27.977Z,98667.81
2023-06-11T23:26:57.716Z,98666.58
2023-06-11T23:29:25.166Z,98662.15
2023-06-11T23:31:52.227Z,98660.06
2023-06-11T23:34:19.246Z,98662.65
2023-06-11T23:36:48.092Z,98658.84
2023-06-11T23:39:16.361Z,98659.00
2023-06-11T23:41:43.303Z,98657.38
2023-06-11T23:44:12.033Z,98656.23
2023-06-11T23:46:39.168Z,98653.23
2023-06-11T23:49:06.135Z,98651.73
2023-06-11T23:51:33.762Z,98654.45
2023-06-11T23:54:01.116Z,98657.44
2023-06-11T23:56:27.979Z,98659.27
2023-06-11T23:58:54.858Z,98660.25
